aviador You're here:

SACO Decoded Metar

CORDOBA in ARGENTINA
Report Time2017-12-15 17:00:00
UTC Time2017-12-15 17:56:15
Flight Rules vfr VFR
Wind020° at 16 kt
W.Decomp.*RWY 36: 14.7 kt HW 6.3 kt RCW
RWY 05: 14.3 kt HW 7.3 kt LCW
W.Rank020° ranks 1
Current wind is above 020° avg. (10.1)
Visibility9999 m
Phenomena:N/A
Clouds:Few 020 Hf
Expected CloudBase > 6,000 ft AGL from Temp-Dew spread
CeilingNone
Temp33°C (ISA +21)
Dew Point18°C (41% RH)
Heat Index34.0°C
AAT30.0°C
QNH1009 hPa
Density Alt4,360 ft
Elevation1,555 ft
Report Wrong Elevation
Raw Report
SACO 151700Z 02016KT 9999 FEW020 33/18 Q1009=

Extra information for SACO:More info

Metar Taf Metar & Taf Last 4 Metars F.Rules Stats Wind Profile Meteogram Temp Stats Airport Information Weather charts Add Link Nearby VenuesMetar ALERT Operation Metar Decoded Social comments